Time;durP1;ratioP1;P1;durP2;ratioP2;P2;SDS_P1;SDS_P2;PMS_P1;PMS_P2;Temp;Humidity;BMP_temperature;BMP_pressure;BME280_temperature;BME280_humidity;BME280_pressure;Samples;Min_cycle;Max_cycle;Signal;HPM_P1;HPM_P2
2024/04/11 00:01:39;;;;;;;10.88;4.15;;;;;;;;;;5461746;26;20022;-82
2024/04/11 00:04:24;;;;;;;11.95;5.00;;;;;;;;;;5489667;26;20015;-82
2024/04/11 00:06:55;;;;;;;9.05;4.68;;;;;;;;;;5490475;26;20031;-82
2024/04/11 00:09:26;;;;;;;12.55;4.13;;;;;;;;;;5490454;26;20144;-82
2024/04/11 00:11:56;;;;;;;19.20;5.38;;;;;;;;;;5490516;26;20022;-82
2024/04/11 00:14:29;;;;;;;14.23;4.68;;;;;;;;;;5490430;26;20025;-81
2024/04/11 00:17:00;;;;;;;9.32;4.80;;;;;;;;;;5492153;26;20518;-82
2024/04/11 00:19:31;;;;;;;12.45;4.35;;;;;;;;;;5491610;26;20495;-81
2024/04/11 00:22:01;;;;;;;13.15;4.97;;;;;;;;;;5490483;26;20365;-85
2024/04/11 00:24:31;;;;;;;11.25;4.68;;;;;;;;;;5504368;26;20037;-82
2024/04/11 00:27:02;;;;;;;9.82;4.75;;;;;;;;;;5527392;25;20025;-82
2024/04/11 00:29:32;;;;;;;10.48;4.40;;;;;;;;;;5495558;26;20025;-82
2024/04/11 00:32:03;;;;;;;8.35;4.28;;;;;;;;;;5525615;26;20021;-81
2024/04/11 00:34:37;;;;;;;13.15;4.70;;;;;;;;;;5526397;26;20026;-84
2024/04/11 00:37:11;;;;;;;10.27;4.72;;;;;;;;;;5525381;26;20021;-82
2024/04/11 00:39:42;;;;;;;12.07;4.88;;;;;;;;;;5495155;26;20459;-82
2024/04/11 00:42:13;;;;;;;9.50;4.82;;;;;;;;;;5525396;26;20017;-82
2024/04/11 00:44:43;;;;;;;10.30;4.40;;;;;;;;;;5527806;26;20030;-82
2024/04/11 00:47:13;;;;;;;11.00;4.97;;;;;;;;;;5526550;26;20017;-82
2024/04/11 00:49:46;;;;;;;11.02;5.47;;;;;;;;;;5526484;26;20029;-87
2024/04/11 00:52:17;;;;;;;11.52;5.15;;;;;;;;;;5497070;26;20013;-82
2024/04/11 00:54:49;;;;;;;10.60;4.90;;;;;;;;;;5526090;25;20018;-81
2024/04/11 00:57:21;;;;;;;12.32;4.82;;;;;;;;;;5526577;25;20017;-83
2024/04/11 00:59:53;;;;;;;11.35;5.05;;;;;;;;;;5527920;26;20025;-82
2024/04/11 01:02:24;;;;;;;11.52;4.63;;;;;;;;;;5495211;26;20014;-82
2024/04/11 01:04:57;;;;;;;10.40;4.95;;;;;;;;;;5526532;26;20026;-82
2024/04/11 01:07:28;;;;;;;13.82;4.93;;;;;;;;;;5526437;25;20022;-83
2024/04/11 01:09:59;;;;;;;9.27;4.85;;;;;;;;;;5527479;26;20017;-83
2024/04/11 01:12:30;;;;;;;9.45;4.80;;;;;;;;;;5525379;26;20022;-84
2024/04/11 01:15:02;;;;;;;9.32;4.57;;;;;;;;;;5495911;26;20359;-84
2024/04/11 01:17:33;;;;;;;14.70;6.07;;;;;;;;;;5527152;26;20479;-86
2024/04/11 01:20:04;;;;;;;11.00;5.20;;;;;;;;;;5527523;26;20367;-82
2024/04/11 01:22:43;;;;;;;10.88;5.88;;;;;;;;;;5524629;26;20017;-83
2024/04/11 01:25:14;;;;;;;11.23;5.82;;;;;;;;;;5527360;26;20081;-88
2024/04/11 01:27:45;;;;;;;14.68;5.38;;;;;;;;;;5525760;26;20133;-82
2024/04/11 01:30:16;;;;;;;11.20;5.47;;;;;;;;;;5527643;25;20019;-82
2024/04/11 01:32:48;;;;;;;10.15;5.43;;;;;;;;;;5525568;26;20026;-82
2024/04/11 01:35:19;;;;;;;;;;;;;;;;;;5525342;26;20021;-85
2024/04/11 01:37:49;;;;;;;17.88;4.93;;;;;;;;;;5509738;26;19952;-82
2024/04/11 01:40:20;;;;;;;9.07;4.43;;;;;;;;;;5487954;26;20022;-83
2024/04/11 01:42:50;;;;;;;11.85;5.40;;;;;;;;;;5490556;26;20030;-83
2024/04/11 01:45:20;;;;;;;10.65;5.15;;;;;;;;;;5488859;26;20382;-83
2024/04/11 01:47:51;;;;;;;10.52;5.13;;;;;;;;;;5490134;26;20018;-87
2024/04/11 01:50:22;;;;;;;;;;;;;;;;;;5490669;26;20018;-82
2024/04/11 01:52:55;;;;;;;12.45;5.72;;;;;;;;;;5487988;26;19957;-83
2024/04/11 01:55:25;;;;;;;8.75;4.93;;;;;;;;;;5489098;26;20022;-82
2024/04/11 01:57:55;;;;;;;14.88;5.63;;;;;;;;;;5488778;26;20022;-83
2024/04/11 02:00:26;;;;;;;13.25;5.53;;;;;;;;;;5490013;26;20305;-84
2024/04/11 02:02:57;;;;;;;12.70;5.10;;;;;;;;;;5488577;26;20018;-81
2024/04/11 02:05:27;;;;;;;13.90;5.32;;;;;;;;;;5489599;26;20018;-88
2024/04/11 02:07:57;;;;;;;12.20;5.95;;;;;;;;;;5457523;26;20063;-83
2024/04/11 02:10:30;;;;;;;13.63;5.28;;;;;;;;;;5488052;26;20445;-82
2024/04/11 02:13:01;;;;;;;18.50;6.35;;;;;;;;;;5489896;26;20019;-85
2024/04/11 02:15:31;;;;;;;12.18;5.65;;;;;;;;;;5457573;26;20018;-82
2024/04/11 02:18:01;;;;;;;10.77;5.65;;;;;;;;;;5487397;26;20018;-86
2024/04/11 02:20:32;;;;;;;10.52;5.45;;;;;;;;;;5487178;26;20029;-84
2024/04/11 02:23:04;;;;;;;13.68;5.68;;;;;;;;;;5487451;26;20383;-83
2024/04/11 02:25:34;;;;;;;10.30;5.45;;;;;;;;;;5487444;26;20018;-83
2024/04/11 02:28:05;;;;;;;12.88;5.55;;;;;;;;;;5487430;26;20022;-81
2024/04/11 02:30:36;;;;;;;15.40;6.13;;;;;;;;;;5456882;26;20022;-81
2024/04/11 02:33:06;;;;;;;11.73;6.47;;;;;;;;;;5487228;26;20018;-82
2024/04/11 02:35:38;;;;;;;11.73;5.97;;;;;;;;;;5486478;26;20010;-82
2024/04/11 02:38:08;;;;;;;11.88;6.45;;;;;;;;;;5511530;26;20374;-82
2024/04/11 02:40:39;;;;;;;12.48;5.25;;;;;;;;;;5522443;26;20038;-85
2024/04/11 02:43:10;;;;;;;11.63;5.47;;;;;;;;;;5493997;26;20021;-83
2024/04/11 02:45:42;;;;;;;14.65;5.90;;;;;;;;;;5494014;26;20026;-82
2024/04/11 02:48:12;;;;;;;11.38;4.88;;;;;;;;;;5523116;26;20025;-82
2024/04/11 02:50:43;;;;;;;12.23;5.15;;;;;;;;;;5523240;26;20021;-82
2024/04/11 02:53:17;;;;;;;13.07;5.80;;;;;;;;;;5523030;26;20017;-82
2024/04/11 02:55:48;;;;;;;10.73;5.00;;;;;;;;;;5525255;26;20460;-85
2024/04/11 02:58:20;;;;;;;11.77;5.20;;;;;;;;;;5525379;26;20017;-82
2024/04/11 03:01:00;;;;;;;13.55;5.50;;;;;;;;;;5525413;26;20017;-84
2024/04/11 03:03:32;;;;;;;13.48;6.45;;;;;;;;;;5525537;26;20021;-83
2024/04/11 03:06:11;;;;;;;14.13;5.88;;;;;;;;;;5525186;26;20025;-82
2024/04/11 03:08:42;;;;;;;10.40;5.05;;;;;;;;;;5522669;26;20365;-82
2024/04/11 03:11:12;;;;;;;14.73;5.57;;;;;;;;;;5525250;26;20022;-85
2024/04/11 03:13:43;;;;;;;12.68;5.15;;;;;;;;;;5523443;26;20336;-82
2024/04/11 03:16:14;;;;;;;11.27;5.85;;;;;;;;;;5523993;26;20104;-83
2024/04/11 03:18:45;;;;;;;;;;;;;;;;;;5523962;26;20038;-81
2024/04/11 03:21:15;;;;;;;12.23;5.05;;;;;;;;;;5523760;26;19951;-82
2024/04/11 03:23:47;;;;;;;10.68;4.80;;;;;;;;;;5522882;26;20017;-82
2024/04/11 03:26:19;;;;;;;8.68;4.55;;;;;;;;;;5524224;26;20021;-82
2024/04/11 03:28:49;;;;;;;10.90;5.65;;;;;;;;;;5526770;26;20017;-82
2024/04/11 03:31:21;;;;;;;12.18;5.28;;;;;;;;;;5495539;26;20033;-81
2024/04/11 03:33:51;;;;;;;16.77;5.38;;;;;;;;;;5527483;26;20021;-82
2024/04/11 03:36:22;;;;;;;13.20;5.93;;;;;;;;;;5527407;26;20344;-82
2024/04/11 03:38:55;;;;;;;12.30;5.05;;;;;;;;;;5527259;25;20022;-82
2024/04/11 03:41:52;;;;;;;17.30;5.57;;;;;;;;;;5529123;26;20022;-85
2024/04/11 03:47:22;;;;;;;14.25;6.93;;;;;;;;;;5528726;26;20351;-82
2024/04/11 03:50:18;;;;;;;14.00;5.80;;;;;;;;;;5529269;26;20006;-81
2024/04/11 03:52:53;;;;;;;14.05;5.80;;;;;;;;;;5529093;26;20056;-82
2024/04/11 03:55:24;;;;;;;12.20;5.32;;;;;;;;;;5528911;26;20459;-81
2024/04/11 03:57:54;;;;;;;10.60;6.18;;;;;;;;;;5528360;26;20022;-80
2024/04/11 04:00:24;;;;;;;13.02;5.68;;;;;;;;;;5528256;26;20455;-82
2024/04/11 04:02:55;;;;;;;12.75;6.13;;;;;;;;;;5526885;26;20025;-81
2024/04/11 04:05:26;;;;;;;13.13;5.85;;;;;;;;;;5495898;26;20094;-80
2024/04/11 04:07:57;;;;;;;13.20;5.55;;;;;;;;;;5496633;26;20026;-80
2024/04/11 04:10:27;;;;;;;12.98;5.40;;;;;;;;;;5525100;26;20091;-81
2024/04/11 04:12:58;;;;;;;14.77;6.90;;;;;;;;;;5525812;26;20026;-81
2024/04/11 04:15:30;;;;;;;11.48;5.20;;;;;;;;;;5528543;26;20025;-80
2024/04/11 04:18:03;;;;;;;15.05;6.05;;;;;;;;;;5525864;26;20017;-82
2024/04/11 04:20:58;;;;;;;12.25;5.90;;;;;;;;;;5526778;26;20014;-81
2024/04/11 04:23:29;;;;;;;14.18;5.93;;;;;;;;;;5527103;26;20021;-80
2024/04/11 04:26:08;;;;;;;14.80;6.07;;;;;;;;;;5526723;26;20021;-84
2024/04/11 04:28:42;;;;;;;12.10;5.90;;;;;;;;;;5453569;26;20035;-81
2024/04/11 04:31:21;;;;;;;13.27;6.43;;;;;;;;;;5452178;26;20045;-81
2024/04/11 04:33:56;;;;;;;14.18;6.55;;;;;;;;;;5453377;26;20022;-81
2024/04/11 04:36:39;;;;;;;10.77;6.35;;;;;;;;;;5482389;26;20027;-82
2024/04/11 04:39:16;;;;;;;10.00;6.32;;;;;;;;;;5454371;26;20356;-80
2024/04/11 04:41:47;;;;;;;17.38;6.65;;;;;;;;;;5454281;26;20015;-82
2024/04/11 04:44:17;;;;;;;15.60;6.38;;;;;;;;;;5453050;26;20019;-81
2024/04/11 04:46:48;;;;;;;17.15;6.57;;;;;;;;;;5480047;26;20019;-81
2024/04/11 04:49:18;;;;;;;15.50;6.18;;;;;;;;;;5453901;26;20027;-85
2024/04/11 04:51:50;;;;;;;11.38;5.90;;;;;;;;;;5453195;26;20018;-83
2024/04/11 04:54:19;;;;;;;9.82;5.53;;;;;;;;;;5452667;26;20015;-83
2024/04/11 04:56:52;;;;;;;13.30;5.22;;;;;;;;;;5452985;26;20461;-82
2024/04/11 04:59:26;;;;;;;11.07;5.43;;;;;;;;;;5453000;26;20027;-82
2024/04/11 05:01:57;;;;;;;10.95;6.40;;;;;;;;;;5454568;26;20018;-83
2024/04/11 05:04:29;;;;;;;11.13;5.97;;;;;;;;;;5451858;26;20458;-83
2024/04/11 05:07:02;;;;;;;10.95;5.90;;;;;;;;;;5451969;26;20018;-82
2024/04/11 05:09:35;;;;;;;9.23;5.70;;;;;;;;;;5451670;26;20031;-83
2024/04/11 05:12:06;;;;;;;10.50;6.05;;;;;;;;;;5454340;26;20019;-83
2024/04/11 05:14:38;;;;;;;15.95;6.03;;;;;;;;;;5452361;26;20019;-83
2024/04/11 05:17:08;;;;;;;11.65;7.18;;;;;;;;;;5461714;26;20369;-84
2024/04/11 05:19:41;;;;;;;11.68;5.85;;;;;;;;;;5485488;26;20029;-83
2024/04/11 05:22:11;;;;;;;10.23;5.28;;;;;;;;;;5490520;26;20022;-83
2024/04/11 05:24:41;;;;;;;11.13;5.60;;;;;;;;;;5488753;26;20022;-85
2024/04/11 05:27:11;;;;;;;16.85;5.82;;;;;;;;;;5487495;26;20039;-81
2024/04/11 05:29:43;;;;;;;11.00;7.20;;;;;;;;;;5469405;26;20365;-83
2024/04/11 05:32:13;;;;;;;11.75;6.32;;;;;;;;;;5473050;26;20364;-85
2024/04/11 05:34:44;;;;;;;14.00;5.72;;;;;;;;;;5488202;26;20030;-83
2024/04/11 05:37:14;;;;;;;12.35;6.90;;;;;;;;;;5487485;26;20034;-84
2024/04/11 05:39:44;;;;;;;12.77;6.22;;;;;;;;;;5489814;26;20043;-85
2024/04/11 05:42:15;;;;;;;12.52;6.03;;;;;;;;;;5489752;26;20030;-83
2024/04/11 05:44:46;;;;;;;12.20;5.65;;;;;;;;;;5457103;26;20026;-83
2024/04/11 05:47:16;;;;;;;16.65;6.90;;;;;;;;;;5487467;26;20038;-83
2024/04/11 05:49:46;;;;;;;12.25;5.60;;;;;;;;;;5489661;26;20026;-83
2024/04/11 05:52:17;;;;;;;11.27;5.65;;;;;;;;;;5487569;26;20496;-82
2024/04/11 05:54:49;;;;;;;12.82;5.60;;;;;;;;;;5490077;26;20030;-82
2024/04/11 05:57:20;;;;;;;12.07;6.07;;;;;;;;;;5458522;26;20460;-82
2024/04/11 05:59:55;;;;;;;12.13;6.28;;;;;;;;;;5486570;26;20374;-82
2024/04/11 06:02:50;;;;;;;10.15;5.38;;;;;;;;;;5490297;26;20022;-82
2024/04/11 06:05:22;;;;;;;13.57;6.18;;;;;;;;;;5490117;26;20347;-82
2024/04/11 06:07:55;;;;;;;12.82;5.75;;;;;;;;;;5457342;26;20469;-83
2024/04/11 06:10:25;;;;;;;11.98;6.22;;;;;;;;;;5486798;26;20471;-82
2024/04/11 06:12:55;;;;;;;12.85;4.55;;;;;;;;;;5518945;26;20025;-81
2024/04/11 06:15:26;;;;;;;10.02;4.68;;;;;;;;;;5524440;26;20045;-83
2024/04/11 06:17:58;;;;;;;9.55;4.90;;;;;;;;;;5494204;26;20018;-83
2024/04/11 06:20:28;;;;;;;13.38;5.18;;;;;;;;;;5527733;26;20018;-82
2024/04/11 06:23:08;;;;;;;9.40;4.80;;;;;;;;;;5533487;25;20008;-82
2024/04/11 06:25:44;;;;;;;11.60;4.80;;;;;;;;;;5511338;26;20001;-82
2024/04/11 06:28:14;;;;;;;13.80;5.03;;;;;;;;;;5538593;26;20020;-80
2024/04/11 06:30:48;;;;;;;11.05;4.68;;;;;;;;;;5546487;25;19997;-83
2024/04/11 06:33:19;;;;;;;10.70;3.90;;;;;;;;;;5549416;25;19986;-81
2024/04/11 06:35:52;;;;;;;7.50;4.15;;;;;;;;;;5549413;25;19989;-81
2024/04/11 06:38:24;;;;;;;9.18;4.50;;;;;;;;;;5519956;25;20012;-82
2024/04/11 06:40:54;;;;;;;7.13;4.35;;;;;;;;;;5534153;25;20348;-82
2024/04/11 06:43:25;;;;;;;7.70;4.50;;;;;;;;;;5524324;26;20108;-81
2024/04/11 06:45:55;;;;;;;6.82;4.05;;;;;;;;;;5493708;26;20021;-81
2024/04/11 06:48:26;;;;;;;8.60;4.60;;;;;;;;;;5526293;26;20021;-80
2024/04/11 06:50:58;;;;;;;7.50;4.25;;;;;;;;;;5524125;26;20021;-82
2024/04/11 06:53:30;;;;;;;8.35;4.75;;;;;;;;;;5525990;26;20017;-84
2024/04/11 06:56:07;;;;;;;11.95;4.43;;;;;;;;;;5524607;26;20537;-82
2024/04/11 06:58:39;;;;;;;11.73;4.43;;;;;;;;;;5494326;26;20033;-85
2024/04/11 07:01:10;;;;;;;8.00;4.63;;;;;;;;;;5523500;26;20021;-82
2024/04/11 07:03:40;;;;;;;8.77;4.75;;;;;;;;;;5525530;25;20021;-86
2024/04/11 07:06:46;;;;;;;11.45;5.38;;;;;;;;;;5527119;26;20343;-82
2024/04/11 07:09:11;;;;;;;11.70;4.75;;;;;;;;;;5523529;26;20013;-83
2024/04/11 07:11:42;;;;;;;10.27;4.80;;;;;;;;;;5516552;26;20039;-84
2024/04/11 07:14:15;;;;;;;11.50;5.20;;;;;;;;;;5492499;26;20014;-84
2024/04/11 07:16:47;;;;;;;11.70;5.40;;;;;;;;;;5490169;26;20034;-82
2024/04/11 07:19:18;;;;;;;10.45;5.43;;;;;;;;;;5490679;26;20472;-83
2024/04/11 07:21:48;;;;;;;14.82;5.72;;;;;;;;;;5460512;26;20364;-82
2024/04/11 07:24:23;;;;;;;14.45;5.72;;;;;;;;;;5460308;26;20022;-82
2024/04/11 07:27:17;;;;;;;12.85;5.85;;;;;;;;;;5492324;26;20018;-82
2024/04/11 07:29:48;;;;;;;11.90;5.13;;;;;;;;;;5490601;26;20027;-82
2024/04/11 07:32:21;;;;;;;15.63;5.82;;;;;;;;;;5460544;26;20014;-82
2024/04/11 07:34:51;;;;;;;9.75;5.32;;;;;;;;;;5490090;26;20018;-81
2024/04/11 07:37:25;;;;;;;12.40;6.18;;;;;;;;;;5490378;26;20023;-83
2024/04/11 07:40:00;;;;;;;9.85;5.05;;;;;;;;;;5490630;26;20022;-83
2024/04/11 07:43:06;;;;;;;12.38;6.10;;;;;;;;;;5492108;26;20023;-82
2024/04/11 07:45:30;;;;;;;10.52;6.25;;;;;;;;;;5489346;26;20014;-84
2024/04/11 07:48:09;;;;;;;14.55;6.13;;;;;;;;;;5490524;26;20026;-84
2024/04/11 07:50:44;;;;;;;13.00;6.10;;;;;;;;;;5490004;26;20022;-81
2024/04/11 07:53:15;;;;;;;11.50;6.32;;;;;;;;;;5492071;26;20023;-83
2024/04/11 07:55:49;;;;;;;12.45;6.22;;;;;;;;;;5489685;26;20022;-82
2024/04/11 07:58:20;;;;;;;12.38;5.82;;;;;;;;;;5490079;26;20022;-82
2024/04/11 08:00:54;;;;;;;10.90;6.07;;;;;;;;;;5459560;26;20018;-83
2024/04/11 08:03:25;;;;;;;13.88;6.82;;;;;;;;;;5490037;26;20014;-83
2024/04/11 08:05:57;;;;;;;13.95;6.47;;;;;;;;;;5459366;26;20026;-83
2024/04/11 08:08:27;;;;;;;11.63;5.40;;;;;;;;;;5489422;26;20018;-83
2024/04/11 08:11:02;;;;;;;10.65;5.82;;;;;;;;;;5489716;26;20055;-84
2024/04/11 08:13:35;;;;;;;10.50;4.65;;;;;;;;;;5489689;26;20014;-82
2024/04/11 08:16:10;;;;;;;12.48;6.13;;;;;;;;;;5490937;26;20018;-82
2024/04/11 08:18:40;;;;;;;11.80;5.10;;;;;;;;;;5491337;26;20014;-82
2024/04/11 08:21:13;;;;;;;10.02;5.47;;;;;;;;;;5489454;26;20365;-84
2024/04/11 08:23:49;;;;;;;9.02;5.90;;;;;;;;;;5490399;26;20358;-83
2024/04/11 08:26:21;;;;;;;9.57;5.10;;;;;;;;;;5491365;26;20019;-82
2024/04/11 08:28:51;;;;;;;11.10;5.30;;;;;;;;;;5488773;26;20014;-84
2024/04/11 08:31:29;;;;;;;11.73;6.82;;;;;;;;;;5491996;26;20026;-84
2024/04/11 08:34:00;;;;;;;10.88;5.95;;;;;;;;;;5489265;26;20018;-85
2024/04/11 08:36:31;;;;;;;11.80;6.47;;;;;;;;;;5489270;26;20022;-83
2024/04/11 08:39:04;;;;;;;11.50;5.68;;;;;;;;;;5490988;26;20086;-82
2024/04/11 08:41:36;;;;;;;11.38;5.88;;;;;;;;;;5489765;26;20429;-82
2024/04/11 08:44:07;;;;;;;10.05;5.40;;;;;;;;;;5489453;26;20018;-83
2024/04/11 08:46:39;;;;;;;13.50;5.65;;;;;;;;;;5489233;26;20014;-83
2024/04/11 08:49:10;;;;;;;11.38;5.78;;;;;;;;;;5491334;26;20014;-83
2024/04/11 08:51:44;;;;;;;11.90;6.22;;;;;;;;;;5490832;26;20014;-83
2024/04/11 08:54:17;;;;;;;12.35;6.25;;;;;;;;;;5489232;26;20018;-83
2024/04/11 08:56:47;;;;;;;10.85;5.60;;;;;;;;;;5488877;26;20355;-82
2024/04/11 08:59:19;;;;;;;14.35;5.80;;;;;;;;;;5489087;26;20031;-82
2024/04/11 09:01:50;;;;;;;9.90;5.15;;;;;;;;;;5488927;26;20022;-82
2024/04/11 09:04:22;;;;;;;9.82;5.72;;;;;;;;;;5491057;26;20342;-82
2024/04/11 09:06:54;;;;;;;12.55;5.35;;;;;;;;;;5458672;26;20026;-82
2024/04/11 09:09:27;;;;;;;13.32;5.22;;;;;;;;;;5491009;26;20022;-81
2024/04/11 09:11:58;;;;;;;9.50;5.47;;;;;;;;;;5489225;26;20030;-84
2024/04/11 09:14:29;;;;;;;11.65;6.60;;;;;;;;;;5488657;26;20028;-83
2024/04/11 09:17:04;;;;;;;9.38;5.30;;;;;;;;;;5491006;26;20018;-83
2024/04/11 09:20:05;;;;;;;9.40;5.60;;;;;;;;;;5489185;26;20034;-84
2024/04/11 09:22:35;;;;;;;10.57;5.50;;;;;;;;;;5488720;26;20014;-84
2024/04/11 09:25:07;;;;;;;12.82;6.28;;;;;;;;;;5487970;26;20428;-84
2024/04/11 09:27:38;;;;;;;9.35;5.07;;;;;;;;;;5489114;26;20010;-85
2024/04/11 09:30:08;;;;;;;10.50;5.20;;;;;;;;;;5459347;26;20014;-85
2024/04/11 09:32:44;;;;;;;14.27;5.95;;;;;;;;;;5488669;26;20037;-83
2024/04/11 09:35:20;;;;;;;10.63;5.10;;;;;;;;;;5488804;26;20018;-83
2024/04/11 09:37:59;;;;;;;12.43;5.88;;;;;;;;;;5490512;26;20464;-82
2024/04/11 09:40:56;;;;;;;12.10;5.25;;;;;;;;;;5490058;26;20022;-83
2024/04/11 09:43:31;;;;;;;14.82;4.68;;;;;;;;;;5490227;26;20022;-82
2024/04/11 09:46:06;;;;;;;11.20;5.63;;;;;;;;;;5488400;26;20023;-82
2024/04/11 09:48:41;;;;;;;12.07;5.45;;;;;;;;;;5489107;26;20347;-84
2024/04/11 09:51:15;;;;;;;12.45;5.82;;;;;;;;;;5488280;26;20015;-83
2024/04/11 09:53:46;;;;;;;9.40;5.22;;;;;;;;;;5488448;26;20018;-83
2024/04/11 09:56:18;;;;;;;11.65;5.15;;;;;;;;;;5487893;26;20035;-83
2024/04/11 09:58:48;;;;;;;10.07;4.82;;;;;;;;;;5457753;26;20026;-83
2024/04/11 10:01:31;;;;;;;10.13;5.05;;;;;;;;;;5458506;26;20018;-83
2024/04/11 10:04:21;;;;;;;9.55;5.10;;;;;;;;;;5488120;26;20026;-84
2024/04/11 10:06:58;;;;;;;8.80;4.38;;;;;;;;;;5489721;26;20045;-85
2024/04/11 10:09:31;;;;;;;12.05;4.63;;;;;;;;;;5488316;26;20027;-84
2024/04/11 10:12:05;;;;;;;8.43;4.32;;;;;;;;;;5488077;26;20029;-83
2024/04/11 10:14:39;;;;;;;12.65;4.80;;;;;;;;;;5489637;26;20094;-83
2024/04/11 10:17:13;;;;;;;8.55;4.90;;;;;;;;;;5489785;26;20031;-84
2024/04/11 10:19:43;;;;;;;11.73;6.28;;;;;;;;;;5489470;26;20018;-83
2024/04/11 10:22:24;;;;;;;9.90;5.90;;;;;;;;;;5457184;26;20355;-83
2024/04/11 10:25:06;;;;;;;9.80;5.40;;;;;;;;;;5487539;26;20038;-84
2024/04/11 10:27:37;;;;;;;9.15;4.60;;;;;;;;;;5486188;26;20037;-83
2024/04/11 10:30:09;;;;;;;11.05;5.25;;;;;;;;;;5485429;26;20379;-84
2024/04/11 10:32:46;;;;;;;9.43;4.97;;;;;;;;;;5482521;26;20034;-83
2024/04/11 10:35:19;;;;;;;9.10;4.88;;;;;;;;;;5488513;26;20042;-83
2024/04/11 10:37:50;;;;;;;13.30;5.85;;;;;;;;;;5491095;26;20038;-80
2024/04/11 10:40:24;;;;;;;10.30;4.68;;;;;;;;;;5495280;26;20034;-82
2024/04/11 10:43:12;;;;;;;17.30;6.20;;;;;;;;;;5491536;26;20088;-83
2024/04/11 10:45:45;;;;;;;12.10;6.10;;;;;;;;;;5461192;26;20370;-83
2024/04/11 10:48:17;;;;;;;10.65;5.13;;;;;;;;;;5492703;26;20023;-83
2024/04/11 10:50:48;;;;;;;10.55;5.03;;;;;;;;;;5491007;26;20480;-84
2024/04/11 10:53:20;;;;;;;18.50;8.25;;;;;;;;;;5466562;26;20481;-83
2024/04/11 10:56:20;;;;;;;14.07;6.65;;;;;;;;;;5480380;26;20026;-83
2024/04/11 10:59:22;;;;;;;16.58;7.28;;;;;;;;;;5510867;26;20372;-82
2024/04/11 11:02:10;;;;;;;13.95;6.97;;;;;;;;;;5490182;26;20022;-82
2024/04/11 11:04:44;;;;;;;20.52;9.68;;;;;;;;;;5494043;26;20030;-82
2024/04/11 11:07:20;;;;;;;17.42;8.23;;;;;;;;;;5507035;26;20029;-82
2024/04/11 11:09:53;;;;;;;28.50;13.98;;;;;;;;;;5527524;26;20495;-81
2024/04/11 11:12:24;;;;;;;22.20;10.15;;;;;;;;;;5527509;26;20365;-83
2024/04/11 11:14:55;;;;;;;47.45;23.25;;;;;;;;;;5527890;26;20041;-85
2024/04/11 11:17:31;;;;;;;13.65;7.53;;;;;;;;;;5461357;26;20369;-84
2024/04/11 11:20:09;;;;;;;33.53;16.55;;;;;;;;;;5462146;26;20034;-82
2024/04/11 11:22:41;;;;;;;39.85;21.35;;;;;;;;;;5454330;26;20030;-84
2024/04/11 11:25:11;;;;;;;14.60;8.25;;;;;;;;;;5488430;26;20054;-84
2024/04/11 11:27:42;;;;;;;23.25;10.30;;;;;;;;;;5457442;26;20046;-82
2024/04/11 11:30:15;;;;;;;12.68;6.18;;;;;;;;;;5486795;26;20041;-82
2024/04/11 11:32:49;;;;;;;15.52;7.00;;;;;;;;;;5487506;26;20030;-83
2024/04/11 11:35:19;;;;;;;14.15;6.72;;;;;;;;;;5466525;26;20483;-83
2024/04/11 11:37:50;;;;;;;19.13;6.47;;;;;;;;;;5493458;26;20038;-83
2024/04/11 11:40:38;;;;;;;15.23;7.00;;;;;;;;;;5525066;26;20037;-86
2024/04/11 11:43:16;;;;;;;14.02;6.55;;;;;;;;;;5521005;26;20053;-82
2024/04/11 11:48:58;;;;;;;16.50;7.72;;;;;;;;;;5441818;26;20064;-84
2024/04/11 11:51:29;;;;;;;152.52;60.88;;;;;;;;;;5456317;26;20383;-82
2024/04/11 11:54:34;;;;;;;16.92;7.50;;;;;;;;;;5475256;26;20030;-83
2024/04/11 11:57:30;;;;;;;12.45;6.72;;;;;;;;;;5466570;26;20069;-81
2024/04/11 12:00:21;;;;;;;18.35;8.95;;;;;;;;;;5525608;26;20033;-80
2024/04/11 12:02:56;;;;;;;20.17;9.57;;;;;;;;;;5494183;26;20029;-80
2024/04/11 12:05:28;;;;;;;14.20;6.88;;;;;;;;;;5523529;26;20495;-83
2024/04/11 12:08:06;;;;;;;13.70;6.80;;;;;;;;;;5462256;26;20038;-82
2024/04/11 12:13:34;;;;;;;21.20;10.48;;;;;;;;;;5495294;25;20031;-81
2024/04/11 12:16:05;;;;;;;11.52;6.88;;;;;;;;;;5514789;26;20035;-85
2024/04/11 12:18:36;;;;;;;13.57;6.53;;;;;;;;;;5490762;25;20034;-85
2024/04/11 12:21:13;;;;;;;13.85;6.32;;;;;;;;;;5450768;26;20074;-85
2024/04/11 12:23:43;;;;;;;12.77;7.03;;;;;;;;;;5435638;26;20359;-83
2024/04/11 12:26:15;;;;;;;11.45;6.22;;;;;;;;;;5457637;26;20034;-83
2024/04/11 12:28:45;;;;;;;9.68;5.88;;;;;;;;;;5490605;26;20037;-83
2024/04/11 12:31:16;;;;;;;9.68;5.32;;;;;;;;;;5490487;26;20022;-84
2024/04/11 12:33:46;;;;;;;17.98;6.35;;;;;;;;;;5485358;26;20030;-83
2024/04/11 12:39:21;;;;;;;11.25;5.90;;;;;;;;;;5498749;26;20029;-83
2024/04/11 12:41:56;;;;;;;9.35;5.78;;;;;;;;;;5524500;26;20037;-83
2024/04/11 12:44:30;;;;;;;10.52;6.57;;;;;;;;;;5522869;25;20029;-83
2024/04/11 12:47:13;;;;;;;16.38;7.18;;;;;;;;;;5520657;26;20038;-83
2024/04/11 12:49:48;;;;;;;14.75;7.82;;;;;;;;;;5474690;26;20030;-82
2024/04/11 12:52:24;;;;;;;9.27;5.32;;;;;;;;;;5513595;26;20030;-84
2024/04/11 12:54:59;;;;;;;20.55;8.45;;;;;;;;;;5519114;26;20034;-84
2024/04/11 12:57:31;;;;;;;10.38;5.32;;;;;;;;;;5526665;26;20037;-83
2024/04/11 13:03:34;;;;;;;10.00;5.07;;;;;;;;;;5492439;26;20016;-85
2024/04/11 13:06:29;;;;;;;10.43;4.75;;;;;;;;;;5509545;26;20011;-82
2024/04/11 13:09:48;;;;;;;11.90;5.20;;;;;;;;;;5462363;26;20017;-82
2024/04/11 13:12:49;;;;;;;9.52;4.90;;;;;;;;;;5526530;25;20025;-82
2024/04/11 13:15:43;;;;;;;12.35;5.93;;;;;;;;;;5503989;26;19997;-84
2024/04/11 13:18:16;;;;;;;9.85;4.57;;;;;;;;;;5542624;26;20012;-84
2024/04/11 13:20:52;;;;;;;8.95;4.50;;;;;;;;;;5519698;26;20009;-84
2024/04/11 13:23:32;;;;;;;8.98;4.65;;;;;;;;;;5495805;26;20029;-82
2024/04/11 13:26:07;;;;;;;8.35;4.50;;;;;;;;;;5499154;26;20023;-86
2024/04/11 13:28:49;;;;;;;10.82;4.60;;;;;;;;;;5456659;26;20023;-83
2024/04/11 13:31:23;;;;;;;10.70;3.95;;;;;;;;;;5472513;26;20484;-84
2024/04/11 13:34:07;;;;;;;10.23;4.50;;;;;;;;;;5485990;26;20042;-84
2024/04/11 13:36:45;;;;;;;8.65;4.15;;;;;;;;;;5458549;26;20039;-84
2024/04/11 13:39:29;;;;;;;12.98;4.70;;;;;;;;;;5438308;26;20030;-84
2024/04/11 13:42:01;;;;;;;18.23;5.03;;;;;;;;;;5511776;25;20033;-87
2024/04/11 13:44:32;;;;;;;11.50;4.85;;;;;;;;;;5511656;26;21190;-83
2024/04/11 13:47:09;;;;;;;10.38;4.78;;;;;;;;;;5463448;26;20038;-83
2024/04/11 13:49:57;;;;;;;11.57;5.75;;;;;;;;;;5520058;26;20364;-83
2024/04/11 13:52:32;;;;;;;10.02;4.78;;;;;;;;;;5520567;26;20463;-85
2024/04/11 13:55:05;;;;;;;11.30;4.65;;;;;;;;;;5448783;26;20031;-85
2024/04/11 13:57:41;;;;;;;11.30;5.18;;;;;;;;;;5480454;26;20034;-84
2024/04/11 14:00:16;;;;;;;9.85;4.32;;;;;;;;;;5456145;26;20031;-82
2024/04/11 14:03:16;;;;;;;8.82;4.35;;;;;;;;;;5471647;26;20026;-86
2024/04/11 14:06:00;;;;;;;9.20;5.35;;;;;;;;;;5471646;26;20085;-85
2024/04/11 14:08:37;;;;;;;12.30;4.57;;;;;;;;;;5486079;25;20047;-84
2024/04/11 14:11:09;;;;;;;7.32;4.70;;;;;;;;;;5484858;26;20089;-82
2024/04/11 14:13:42;;;;;;;11.25;4.93;;;;;;;;;;5495572;25;20037;-81
2024/04/11 14:16:13;;;;;;;9.55;4.28;;;;;;;;;;5483007;26;20050;-85
2024/04/11 14:18:48;;;;;;;9.80;5.32;;;;;;;;;;5486434;25;20367;-84
2024/04/11 14:21:21;;;;;;;11.52;5.05;;;;;;;;;;5492174;26;20042;-84
2024/04/11 14:29:32;;;;;;;9.30;4.15;;;;;;;;;;5393944;26;20043;-83
2024/04/11 14:32:02;;;;;;;8.70;4.47;;;;;;;;;;5476301;26;20026;-86
2024/04/11 14:40:10;;;;;;;9.48;4.00;;;;;;;;;;5500214;25;20106;-83
2024/04/11 14:42:45;;;;;;;7.07;3.80;;;;;;;;;;5457057;26;20031;-82
2024/04/11 14:45:22;;;;;;;8.30;3.90;;;;;;;;;;5486968;26;20364;-85
2024/04/11 14:47:59;;;;;;;9.45;4.40;;;;;;;;;;5455273;26;20030;-81
2024/04/11 14:50:31;;;;;;;8.35;4.32;;;;;;;;;;5486000;26;20026;-81
2024/04/11 14:53:33;;;;;;;10.13;4.35;;;;;;;;;;5483088;26;20034;-82
2024/04/11 14:59:30;;;;;;;10.05;3.97;;;;;;;;;;5417786;26;20035;-83
2024/04/11 15:05:10;;;;;;;8.15;3.88;;;;;;;;;;5487919;26;20022;-83
2024/04/11 15:07:41;;;;;;;9.55;4.32;;;;;;;;;;5487026;26;20022;-83
2024/04/11 15:10:17;;;;;;;7.28;4.10;;;;;;;;;;5485841;26;20030;-86
2024/04/11 15:12:49;;;;;;;8.52;4.03;;;;;;;;;;5485312;26;20019;-85
2024/04/11 15:15:22;;;;;;;7.60;3.70;;;;;;;;;;5487115;26;20030;-81
2024/04/11 15:17:59;;;;;;;9.35;4.35;;;;;;;;;;5489321;26;20464;-82
2024/04/11 15:20:45;;;;;;;8.15;4.43;;;;;;;;;;5488547;26;20034;-81
2024/04/11 15:23:23;;;;;;;9.30;4.20;;;;;;;;;;5488411;26;20026;-83
2024/04/11 15:25:56;;;;;;;9.93;4.47;;;;;;;;;;5453674;26;20022;-83
2024/04/11 15:28:31;;;;;;;8.70;4.13;;;;;;;;;;5454068;26;20026;-81
2024/04/11 15:32:22;;;;;;;6.88;3.50;;;;;;;;;;5455537;26;20019;-81
2024/04/11 15:34:53;;;;;;;10.73;4.35;;;;;;;;;;5453803;26;20034;-82
2024/04/11 15:37:28;;;;;;;7.88;4.60;;;;;;;;;;5453837;26;20019;-83
2024/04/11 15:40:00;;;;;;;10.55;4.05;;;;;;;;;;5455619;26;20091;-83
2024/04/11 15:42:35;;;;;;;6.95;4.38;;;;;;;;;;5452805;26;20023;-85
2024/04/11 15:45:12;;;;;;;7.50;3.90;;;;;;;;;;5455368;26;20035;-82
2024/04/11 15:47:42;;;;;;;8.27;4.57;;;;;;;;;;5453550;26;20373;-81
2024/04/11 15:50:17;;;;;;;9.25;4.50;;;;;;;;;;5490991;26;20494;-83